createdAt,value
2023-02-11T00:00:46.924Z,81.37
2023-02-11T00:03:16.511Z,80.75
2023-02-11T00:05:46.240Z,82.69
2023-02-11T00:08:18.097Z,79.85
2023-02-11T00:10:53.216Z,81.58
2023-02-11T00:13:24.611Z,82.27
2023-02-11T00:15:57.337Z,81.65
2023-02-11T00:18:27.883Z,82.00
2023-02-11T00:20:57.586Z,80.23
2023-02-11T00:23:27.454Z,82.84
2023-02-11T00:25:57.513Z,82.90
2023-02-11T00:28:28.255Z,82.00
2023-02-11T00:30:59.486Z,83.28
2023-02-11T00:33:30.054Z,83.39
2023-02-11T00:36:00.072Z,83.56
2023-02-11T00:38:29.578Z,82.16
2023-02-11T00:41:00.870Z,84.46
2023-02-11T00:43:31.146Z,84.32
2023-02-11T00:46:01.057Z,83.11
2023-02-11T00:48:32.645Z,85.26
2023-02-11T00:51:05.323Z,86.28
2023-02-11T00:53:36.261Z,85.06
2023-02-11T00:56:07.215Z,84.53
2023-02-11T00:58:38.412Z,84.64
2023-02-11T01:01:09.121Z,85.10
2023-02-11T01:03:39.213Z,85.19
2023-02-11T01:06:10.589Z,84.64
2023-02-11T01:08:41.105Z,86.70
2023-02-11T01:11:20.434Z,86.33
2023-02-11T01:13:51.484Z,86.10
2023-02-11T01:16:22.342Z,86.87
2023-02-11T01:18:53.452Z,86.40
2023-02-11T01:21:23.596Z,85.37
2023-02-11T01:23:54.575Z,86.52
2023-02-11T01:26:24.773Z,85.60
2023-02-11T01:28:54.616Z,85.59
2023-02-11T01:31:24.333Z,84.44
2023-02-11T01:33:54.998Z,84.59
2023-02-11T01:36:25.464Z,84.84
2023-02-11T01:38:55.606Z,85.45
2023-02-11T01:41:25.927Z,86.09
2023-02-11T01:44:30.438Z,85.80
2023-02-11T01:47:01.004Z,85.76
2023-02-11T01:49:34.276Z,85.92
2023-02-11T01:52:07.628Z,86.08
2023-02-11T01:55:03.255Z,85.81
2023-02-11T01:57:37.820Z,86.04
2023-02-11T02:00:14.350Z,86.53
2023-02-11T02:02:45.368Z,86.65
2023-02-11T02:05:30.010Z,85.06
2023-02-11T02:08:08.516Z,86.90
2023-02-11T02:10:42.317Z,87.20
2023-02-11T02:13:13.196Z,87.64
2023-02-11T02:15:54.124Z,87.80
2023-02-11T02:18:42.883Z,87.55
2023-02-11T02:21:46.610Z,86.88
2023-02-11T02:24:25.404Z,88.05
2023-02-11T02:27:16.063Z,88.38
2023-02-11T02:29:46.184Z,88.37
2023-02-11T02:32:18.601Z,87.43
2023-02-11T02:35:04.753Z,88.08
2023-02-11T02:37:53.237Z,88.38
2023-02-11T02:40:32.495Z,88.50
2023-02-11T02:43:04.389Z,88.24
2023-02-11T02:45:35.182Z,87.30
2023-02-11T02:48:05.499Z,86.91
2023-02-11T02:50:38.327Z,86.07
2023-02-11T02:53:25.828Z,86.22
2023-02-11T02:56:05.476Z,86.33
2023-02-11T02:58:50.278Z,86.33
2023-02-11T03:01:37.557Z,86.62
2023-02-11T03:04:21.590Z,86.71
2023-02-11T03:07:02.800Z,86.80
2023-02-11T03:09:49.461Z,86.98
2023-02-11T03:12:20.582Z,87.21
2023-02-11T03:14:53.305Z,88.19
2023-02-11T03:17:26.696Z,89.37
2023-02-11T03:19:58.884Z,89.06
2023-02-11T03:22:36.473Z,89.04
2023-02-11T03:25:07.052Z,89.43
2023-02-11T03:27:49.178Z,89.58
2023-02-11T03:30:27.752Z,89.53
2023-02-11T03:33:02.499Z,89.36
2023-02-11T03:35:43.017Z,89.08
2023-02-11T03:38:23.416Z,89.19
2023-02-11T03:40:55.961Z,88.80
2023-02-11T03:43:35.113Z,88.45
2023-02-11T03:46:06.236Z,88.80
2023-02-11T03:48:43.573Z,89.34
2023-02-11T03:51:15.649Z,88.93
2023-02-11T03:53:48.083Z,89.17
2023-02-11T03:56:23.055Z,89.08
2023-02-11T03:58:53.256Z,89.37
2023-02-11T04:01:23.641Z,88.00
2023-02-11T04:03:53.673Z,87.40
2023-02-11T04:06:23.446Z,87.46
2023-02-11T04:08:53.463Z,87.66
2023-02-11T04:11:23.280Z,86.92
2023-02-11T04:13:53.405Z,87.97
2023-02-11T04:16:22.985Z,87.19
2023-02-11T04:18:52.945Z,87.47
2023-02-11T04:21:23.132Z,87.42
2023-02-11T04:23:52.621Z,87.47
2023-02-11T04:26:22.259Z,88.20
2023-02-11T04:28:52.473Z,87.33
2023-02-11T04:31:22.694Z,87.73
2023-02-11T04:33:52.769Z,87.88
2023-02-11T04:36:22.550Z,88.25
2023-02-11T04:39:07.648Z,87.82
2023-02-11T04:41:37.638Z,88.24
2023-02-11T04:44:07.778Z,88.43
2023-02-11T04:46:38.736Z,89.02
2023-02-11T04:49:08.784Z,89.43
2023-02-11T04:51:38.542Z,89.20
2023-02-11T04:54:08.568Z,89.07
2023-02-11T04:56:38.682Z,88.85
2023-02-11T04:59:08.897Z,88.87
2023-02-11T05:01:39.681Z,89.48
2023-02-11T05:04:09.600Z,89.64
2023-02-11T05:06:40.785Z,88.58
2023-02-11T05:09:13.452Z,89.50
2023-02-11T05:11:43.585Z,89.45
2023-02-11T05:14:13.082Z,88.79
2023-02-11T05:16:43.227Z,89.94
2023-02-11T05:19:13.277Z,91.33
2023-02-11T05:21:56.673Z,91.99
2023-02-11T05:24:33.173Z,91.02
2023-02-11T05:27:03.706Z,90.68
2023-02-11T05:29:33.731Z,91.14
2023-02-11T05:32:03.663Z,91.48
2023-02-11T05:34:33.196Z,90.55
2023-02-11T05:37:02.919Z,90.76
2023-02-11T05:39:33.908Z,90.66
2023-02-11T05:42:03.933Z,90.52
2023-02-11T05:44:34.037Z,90.51
2023-02-11T05:47:04.085Z,90.76
2023-02-11T05:49:34.196Z,91.15
2023-02-11T05:52:03.758Z,90.20
2023-02-11T05:54:33.458Z,90.86
2023-02-11T05:57:03.613Z,90.85
2023-02-11T05:59:33.460Z,90.80
2023-02-11T06:02:03.554Z,91.37
2023-02-11T06:04:33.575Z,91.52
2023-02-11T06:07:03.863Z,91.17
2023-02-11T06:09:34.218Z,91.47
2023-02-11T06:12:03.715Z,90.98
2023-02-11T06:14:35.435Z,91.14
2023-02-11T06:17:05.900Z,90.91
2023-02-11T06:19:35.926Z,90.72
2023-02-11T06:22:06.165Z,91.53
2023-02-11T06:24:58.507Z,91.27
2023-02-11T06:27:27.888Z,91.01
2023-02-11T06:29:57.880Z,90.84
2023-02-11T06:32:46.167Z,90.67
2023-02-11T06:35:16.591Z,91.69
2023-02-11T06:37:46.643Z,91.31
2023-02-11T06:40:16.753Z,90.51
2023-02-11T06:42:46.809Z,90.73
2023-02-11T06:45:16.544Z,90.73
2023-02-11T06:47:46.300Z,90.44
2023-02-11T06:50:16.729Z,90.64
2023-02-11T06:52:46.865Z,90.86
2023-02-11T06:55:16.939Z,90.72
2023-02-11T06:57:47.037Z,90.57
2023-02-11T07:00:16.755Z,89.92
2023-02-11T07:02:46.510Z,90.33
2023-02-11T07:05:16.515Z,91.14
2023-02-11T07:07:46.557Z,91.49
2023-02-11T07:10:16.588Z,91.97
2023-02-11T07:12:46.486Z,91.87
2023-02-11T07:15:16.070Z,91.55
2023-02-11T07:17:45.760Z,92.77
2023-02-11T07:20:16.123Z,92.08
2023-02-11T07:22:46.185Z,91.78
2023-02-11T07:25:16.304Z,91.82
2023-02-11T07:27:46.318Z,91.51
2023-02-11T07:30:16.909Z,92.00
2023-02-11T07:32:46.973Z,91.78
2023-02-11T07:35:17.404Z,92.73
2023-02-11T07:37:47.375Z,92.87
2023-02-11T07:40:17.524Z,92.77
2023-02-11T07:42:47.037Z,92.05
2023-02-11T07:45:17.530Z,93.00
2023-02-11T07:47:47.589Z,92.75
2023-02-11T07:50:18.876Z,92.85
2023-02-11T07:52:49.090Z,92.95
2023-02-11T07:55:19.314Z,93.16
2023-02-11T07:57:48.810Z,92.14
2023-02-11T08:00:21.125Z,93.03
2023-02-11T08:02:51.273Z,92.71
2023-02-11T08:05:21.463Z,92.82
2023-02-11T08:07:54.374Z,92.18
2023-02-11T08:10:25.574Z,92.92
2023-02-11T08:12:56.286Z,93.30
2023-02-11T08:15:26.555Z,93.02
2023-02-11T08:17:56.330Z,92.54
2023-02-11T08:20:26.545Z,93.02
2023-02-11T08:22:56.086Z,92.14
2023-02-11T08:25:25.688Z,92.64
2023-02-11T08:27:55.754Z,92.60
2023-02-11T08:30:27.569Z,92.70
2023-02-11T08:32:57.917Z,92.47
2023-02-11T08:35:27.515Z,92.01
2023-02-11T08:37:57.173Z,92.16
2023-02-11T08:40:27.192Z,91.72
2023-02-11T08:42:57.185Z,92.14
2023-02-11T08:45:27.208Z,92.18
2023-02-11T08:47:57.229Z,92.21
2023-02-11T08:50:29.441Z,92.73
2023-02-11T08:52:59.436Z,94.23
2023-02-11T08:55:29.389Z,94.01
2023-02-11T08:57:59.396Z,93.83
2023-02-11T09:00:29.428Z,93.78
2023-02-11T09:02:59.448Z,93.65
2023-02-11T09:05:29.475Z,94.14
2023-02-11T09:07:59.481Z,94.22
2023-02-11T09:10:29.516Z,94.34
2023-02-11T09:12:59.519Z,94.42
2023-02-11T09:15:29.583Z,94.46
2023-02-11T09:18:00.253Z,94.43
2023-02-11T09:20:30.435Z,94.50
2023-02-11T09:23:01.120Z,94.72
2023-02-11T09:25:31.111Z,95.52
2023-02-11T09:28:01.103Z,95.37
2023-02-11T09:30:31.787Z,95.07
2023-02-11T09:33:01.767Z,95.04
2023-02-11T09:35:31.722Z,94.28
2023-02-11T09:38:01.186Z,93.89
2023-02-11T09:40:30.855Z,94.09
2023-02-11T09:43:15.426Z,93.84
2023-02-11T09:45:45.609Z,93.62
2023-02-11T09:48:15.259Z,92.77
2023-02-11T09:50:56.041Z,94.78
2023-02-11T09:53:28.989Z,93.46
2023-02-11T09:56:02.827Z,93.39
2023-02-11T09:58:37.632Z,93.22
2023-02-11T10:01:25.836Z,92.61
2023-02-11T10:04:17.530Z,92.24
2023-02-11T10:06:56.678Z,92.25
2023-02-11T10:09:35.757Z,92.84
2023-02-11T10:12:34.120Z,91.84
2023-02-11T10:15:17.667Z,91.59
2023-02-11T10:18:21.494Z,91.88
2023-02-11T10:21:19.314Z,91.29
2023-02-11T10:23:56.108Z,90.53
2023-02-11T10:26:29.249Z,90.70
2023-02-11T10:29:06.336Z,90.06
2023-02-11T10:31:41.531Z,89.93
2023-02-11T10:34:14.092Z,89.27
2023-02-11T10:36:46.174Z,88.70
2023-02-11T10:39:28.511Z,88.82
2023-02-11T10:42:03.754Z,88.36
2023-02-11T10:44:35.359Z,88.35
2023-02-11T10:47:22.551Z,87.57
2023-02-11T10:49:52.533Z,88.62
2023-02-11T10:52:28.989Z,88.69
2023-02-11T10:55:29.829Z,86.57
2023-02-11T10:58:05.466Z,86.03
2023-02-11T11:00:42.041Z,86.48
2023-02-11T11:03:33.207Z,86.67
2023-02-11T11:06:05.700Z,86.32
2023-02-11T11:08:46.439Z,86.13
2023-02-11T11:11:23.030Z,86.52
2023-02-11T11:14:00.344Z,85.47
2023-02-11T11:16:39.076Z,85.64
2023-02-11T11:19:09.553Z,85.70
2023-02-11T11:21:46.779Z,85.29
2023-02-11T11:24:28.032Z,85.62
2023-02-11T11:27:02.557Z,85.42
2023-02-11T11:29:47.630Z,85.42
2023-02-11T11:32:21.553Z,84.18
2023-02-11T11:34:56.708Z,84.38
2023-02-11T11:37:32.870Z,84.15
2023-02-11T11:40:24.194Z,84.32
2023-02-11T11:43:08.525Z,81.86
2023-02-11T11:45:38.532Z,82.16
2023-02-11T11:48:41.556Z,82.61
2023-02-11T11:51:15.347Z,81.89
2023-02-11T11:53:56.785Z,81.88
2023-02-11T11:56:37.037Z,80.66
2023-02-11T11:59:17.564Z,80.89
2023-02-11T12:02:02.177Z,80.40
2023-02-11T12:04:35.165Z,79.49
2023-02-11T12:07:20.162Z,78.28
2023-02-11T12:10:13.298Z,79.29
2023-02-11T12:12:46.962Z,79.63
2023-02-11T12:15:45.324Z,78.59
2023-02-11T12:18:18.075Z,77.46
2023-02-11T12:21:21.770Z,78.00
2023-02-11T12:24:30.693Z,77.40
2023-02-11T12:27:12.985Z,76.66
2023-02-11T12:30:04.931Z,77.03
2023-02-11T12:32:56.508Z,75.40
2023-02-11T12:35:50.584Z,75.73
2023-02-11T12:38:49.308Z,75.52
2023-02-11T12:42:18.712Z,75.05
2023-02-11T12:45:10.479Z,73.86
2023-02-11T12:48:02.017Z,74.33
2023-02-11T12:50:50.294Z,73.38
2023-02-11T12:53:45.818Z,72.95
2023-02-11T12:56:21.560Z,72.47
2023-02-11T12:58:55.782Z,70.62
2023-02-11T13:01:32.875Z,69.56
2023-02-11T13:04:31.879Z,69.70
2023-02-11T13:07:10.393Z,69.47
2023-02-11T13:09:56.622Z,69.31
2023-02-11T13:12:46.408Z,65.84
2023-02-11T13:15:17.356Z,66.56
2023-02-11T13:18:06.361Z,68.42
2023-02-11T13:20:51.451Z,67.20
2023-02-11T13:24:19.211Z,67.90
2023-02-11T13:27:00.594Z,65.46
2023-02-11T13:29:54.575Z,67.02
2023-02-11T13:32:24.603Z,64.92
2023-02-11T13:34:54.320Z,64.21
2023-02-11T13:37:25.240Z,65.41
2023-02-11T13:40:03.916Z,64.54
2023-02-11T13:42:46.300Z,64.57
2023-02-11T13:45:39.027Z,66.47
2023-02-11T13:48:17.525Z,63.23
2023-02-11T13:50:54.959Z,59.86
2023-02-11T13:53:26.007Z,60.55
2023-02-11T13:56:13.294Z,61.30
2023-02-11T13:58:51.532Z,61.67
2023-02-11T14:02:21.964Z,61.19
2023-02-11T14:05:25.051Z,61.00
2023-02-11T14:08:31.147Z,61.00
2023-02-11T14:11:09.615Z,60.62
2023-02-11T14:14:19.942Z,61.09
2023-02-11T14:17:08.050Z,61.43
2023-02-11T14:19:38.289Z,58.54
2023-02-11T14:22:17.701Z,58.89
2023-02-11T14:24:54.774Z,57.70
2023-02-11T14:27:47.937Z,59.35
2023-02-11T14:30:36.741Z,56.51
2023-02-11T14:33:24.531Z,56.28
2023-02-11T14:36:02.876Z,57.98
2023-02-11T14:38:51.237Z,58.79
2023-02-11T14:41:36.100Z,58.20
2023-02-11T14:44:20.405Z,58.34
2023-02-11T14:46:54.487Z,53.49
2023-02-11T14:49:38.152Z,53.92
2023-02-11T14:52:40.685Z,55.58
2023-02-11T14:55:33.280Z,56.06
2023-02-11T14:58:19.922Z,55.78
2023-02-11T15:01:04.568Z,52.50
2023-02-11T15:03:41.132Z,52.98
2023-02-11T15:06:33.855Z,54.37
2023-02-11T15:09:15.628Z,52.64
2023-02-11T15:11:49.269Z,53.70
2023-02-11T15:14:48.238Z,52.58
2023-02-11T15:17:25.135Z,51.22
2023-02-11T15:20:01.843Z,51.86
2023-02-11T15:22:38.097Z,48.87
2023-02-11T15:25:18.506Z,49.18
2023-02-11T15:27:51.343Z,48.68
2023-02-11T15:30:24.409Z,49.60
2023-02-11T15:32:59.962Z,51.84
2023-02-11T15:35:42.384Z,52.34
2023-02-11T15:38:14.612Z,48.30
2023-02-11T15:41:01.804Z,49.40
2023-02-11T15:43:55.378Z,48.02
2023-02-11T15:46:25.686Z,46.40
2023-02-11T15:48:57.039Z,48.36
2023-02-11T15:51:47.107Z,48.59
2023-02-11T15:54:28.574Z,47.10
2023-02-11T15:57:06.377Z,47.97
2023-02-11T15:59:50.939Z,47.66
2023-02-11T16:02:23.092Z,47.35
2023-02-11T16:05:07.447Z,47.59
2023-02-11T16:07:44.506Z,45.28
2023-02-11T16:10:34.635Z,46.73
2023-02-11T16:13:10.876Z,43.41
2023-02-11T16:15:50.838Z,43.81
2023-02-11T16:18:40.358Z,45.12
2023-02-11T16:21:19.496Z,43.75
2023-02-11T16:23:55.992Z,45.94
2023-02-11T16:26:44.339Z,43.30
2023-02-11T16:29:18.341Z,46.76
2023-02-11T16:31:49.910Z,41.38
2023-02-11T16:34:23.380Z,43.09
2023-02-11T16:36:54.429Z,45.63
2023-02-11T16:39:24.765Z,45.31
2023-02-11T16:41:54.858Z,44.62
2023-02-11T16:44:25.083Z,42.94
2023-02-11T16:46:56.457Z,45.70
2023-02-11T16:49:31.212Z,45.07
2023-02-11T16:52:03.071Z,45.16
2023-02-11T16:54:33.396Z,45.31
2023-02-11T16:57:07.518Z,44.87
2023-02-11T16:59:37.480Z,40.86
2023-02-11T17:02:17.260Z,43.34
2023-02-11T17:04:48.343Z,40.94
2023-02-11T17:07:18.502Z,39.68
2023-02-11T17:09:48.701Z,40.16
2023-02-11T17:12:18.564Z,40.44
2023-02-11T17:14:48.892Z,42.81
2023-02-11T17:17:18.944Z,40.79
2023-02-11T17:19:48.943Z,40.58
2023-02-11T17:22:19.846Z,40.39
2023-02-11T17:24:49.942Z,41.87
2023-02-11T17:27:20.089Z,43.82
2023-02-11T17:29:50.293Z,43.75
2023-02-11T17:32:20.476Z,43.91
2023-02-11T17:34:50.586Z,42.80
2023-02-11T17:37:20.694Z,44.45
2023-02-11T17:39:52.073Z,44.98
2023-02-11T17:42:22.231Z,44.49
2023-02-11T17:44:52.312Z,45.00
2023-02-11T17:47:23.098Z,45.39
2023-02-11T17:49:53.645Z,46.23
2023-02-11T17:52:25.370Z,46.41
2023-02-11T17:54:56.458Z,45.13
2023-02-11T17:57:26.655Z,46.57
2023-02-11T17:59:56.816Z,46.11
2023-02-11T18:02:26.942Z,48.61
2023-02-11T18:04:58.609Z,50.12
2023-02-11T18:07:29.779Z,49.56
2023-02-11T18:09:59.769Z,51.08
2023-02-11T18:12:29.748Z,51.56
2023-02-11T18:14:59.682Z,51.01
2023-02-11T18:17:29.654Z,51.54
2023-02-11T18:20:00.138Z,50.61
2023-02-11T18:22:32.073Z,50.66
2023-02-11T18:25:02.258Z,51.42
2023-02-11T18:27:32.294Z,53.89
2023-02-11T18:30:02.333Z,54.66
2023-02-11T18:32:32.868Z,54.26
2023-02-11T18:35:02.919Z,54.10
2023-02-11T18:37:32.992Z,54.30
2023-02-11T18:40:04.405Z,53.91
2023-02-11T18:42:35.460Z,55.10
2023-02-11T18:45:10.674Z,54.73
2023-02-11T18:47:40.977Z,54.72
2023-02-11T18:50:14.786Z,54.83
2023-02-11T18:52:44.842Z,53.83
2023-02-11T18:55:14.989Z,54.55
2023-02-11T18:57:45.125Z,53.93
2023-02-11T19:00:15.889Z,54.59
2023-02-11T19:02:46.093Z,54.94
2023-02-11T19:05:16.817Z,54.60
2023-02-11T19:07:47.018Z,53.19
2023-02-11T19:10:17.083Z,52.61
2023-02-11T19:12:47.154Z,52.84
2023-02-11T19:15:17.259Z,52.70
2023-02-11T19:17:47.411Z,51.34
2023-02-11T19:20:17.628Z,51.42
2023-02-11T19:22:47.671Z,52.55
2023-02-11T19:25:17.685Z,50.25
2023-02-11T19:27:47.855Z,49.61
2023-02-11T19:30:17.719Z,45.32
2023-02-11T19:32:47.852Z,43.87
2023-02-11T19:35:17.976Z,46.85
2023-02-11T19:37:48.050Z,47.76
2023-02-11T19:40:18.311Z,47.23
2023-02-11T19:42:48.730Z,44.02
2023-02-11T19:45:18.800Z,44.21
2023-02-11T19:47:48.593Z,43.35
2023-02-11T19:50:18.690Z,43.43
2023-02-11T19:52:48.958Z,45.69
2023-02-11T19:55:19.118Z,47.00
2023-02-11T19:57:49.338Z,47.76
2023-02-11T20:00:20.143Z,47.18
2023-02-11T20:02:50.264Z,47.18
2023-02-11T20:05:20.304Z,48.49
2023-02-11T20:07:50.297Z,49.10
2023-02-11T20:10:20.531Z,48.84
2023-02-11T20:12:54.110Z,48.82
2023-02-11T20:15:24.261Z,49.40
2023-02-11T20:17:54.758Z,49.59
2023-02-11T20:20:25.067Z,49.55
2023-02-11T20:23:14.511Z,48.60
2023-02-11T20:25:44.655Z,50.69
2023-02-11T20:28:14.906Z,52.09
2023-02-11T20:30:45.037Z,50.87
2023-02-11T20:33:15.356Z,51.83
2023-02-11T20:35:45.357Z,51.35
2023-02-11T20:38:15.441Z,50.97
2023-02-11T20:40:45.606Z,50.70
2023-02-11T20:43:16.540Z,51.37
2023-02-11T20:45:47.355Z,50.71
2023-02-11T20:48:17.556Z,51.43
2023-02-11T20:50:48.419Z,50.70
2023-02-11T20:53:18.554Z,51.38
2023-02-11T20:55:48.636Z,51.63
2023-02-11T20:58:19.101Z,52.74
2023-02-11T21:00:50.029Z,51.18
2023-02-11T21:03:20.158Z,52.46
2023-02-11T21:05:50.121Z,50.95
2023-02-11T21:08:20.499Z,52.06
2023-02-11T21:10:50.522Z,50.26
2023-02-11T21:13:21.097Z,46.50
2023-02-11T21:15:56.942Z,45.40
2023-02-11T21:18:27.724Z,44.24
2023-02-11T21:20:58.968Z,45.14
2023-02-11T21:23:30.175Z,46.03
2023-02-11T21:26:00.389Z,47.26
2023-02-11T21:28:30.683Z,48.89
2023-02-11T21:31:01.238Z,49.37
2023-02-11T21:33:35.706Z,48.83
2023-02-11T21:36:09.089Z,48.87
2023-02-11T21:38:39.074Z,49.44
2023-02-11T21:41:09.091Z,50.35
2023-02-11T21:43:39.342Z,51.07
2023-02-11T21:46:12.052Z,52.34
2023-02-11T21:48:42.242Z,53.23
2023-02-11T21:51:17.551Z,53.80
2023-02-11T21:53:47.860Z,54.55
2023-02-11T21:56:19.875Z,55.12
2023-02-11T21:58:54.865Z,56.48
2023-02-11T22:01:30.670Z,57.40
2023-02-11T22:04:01.341Z,57.74
2023-02-11T22:06:34.754Z,58.15
2023-02-11T22:09:07.642Z,58.94
2023-02-11T22:11:38.025Z,59.57
2023-02-11T22:14:08.136Z,60.23
2023-02-11T22:16:38.494Z,59.98
2023-02-11T22:19:09.001Z,60.13
2023-02-11T22:21:39.256Z,60.57
2023-02-11T22:24:09.302Z,61.03
2023-02-11T22:26:39.618Z,61.22
2023-02-11T22:29:09.788Z,61.44
2023-02-11T22:31:40.331Z,61.54
2023-02-11T22:34:10.769Z,61.71
2023-02-11T22:36:42.706Z,62.42
2023-02-11T22:39:18.735Z,62.29
2023-02-11T22:41:49.597Z,62.10
2023-02-11T22:44:21.145Z,62.05
2023-02-11T22:46:51.851Z,61.36
2023-02-11T22:49:23.376Z,61.73
2023-02-11T22:51:53.471Z,61.92
2023-02-11T22:54:24.001Z,62.01
2023-02-11T22:56:54.464Z,62.38
2023-02-11T22:59:24.812Z,62.51
2023-02-11T23:01:54.960Z,62.46
2023-02-11T23:04:25.135Z,62.42
2023-02-11T23:06:54.400Z,61.96
2023-02-11T23:09:24.033Z,61.87
2023-02-11T23:11:55.558Z,61.59
2023-02-11T23:14:25.647Z,62.34
2023-02-11T23:16:55.548Z,62.01
2023-02-11T23:19:25.682Z,62.63
2023-02-11T23:21:58.722Z,62.99
2023-02-11T23:24:30.217Z,62.87
2023-02-11T23:27:00.388Z,63.44
2023-02-11T23:29:30.570Z,63.43
2023-02-11T23:32:00.785Z,63.59
2023-02-11T23:34:30.183Z,63.25
2023-02-11T23:37:00.783Z,64.29
2023-02-11T23:39:30.942Z,64.54
2023-02-11T23:42:02.233Z,65.07
2023-02-11T23:44:32.299Z,65.31
2023-02-11T23:47:02.360Z,65.74
2023-02-11T23:49:32.451Z,66.04
2023-02-11T23:52:02.495Z,66.50
2023-02-11T23:54:31.979Z,65.76
2023-02-11T23:57:01.877Z,67.87
2023-02-11T23:59:31.936Z,68.49
